Time;durP1;ratioP1;P1;durP2;ratioP2;P2;SDS_P1;SDS_P2;PMS_P1;PMS_P2;Temp;Humidity;BMP_temperature;BMP_pressure;BME280_temperature;BME280_humidity;BME280_pressure;Samples;Min_cycle;Max_cycle;Signal;HPM_P1;HPM_P2
2021/12/11 00:00:22;;;;;;;0.30;0.20;;;2.00;99.90;;;;;;5034476;28;20536;-82
2021/12/11 00:02:58;;;;;;;0.30;0.30;;;1.90;99.90;;;;;;5038666;28;20474;-82
2021/12/11 00:05:26;;;;;;;0.30;0.20;;;1.90;99.90;;;;;;5034174;28;20463;-82
2021/12/11 00:07:54;;;;;;;0.30;0.20;;;1.90;99.90;;;;;;5033957;28;20473;-82
2021/12/11 00:10:27;;;;;;;0.30;0.20;;;2.00;99.90;;;;;;5033833;28;20833;-82
2021/12/11 00:12:58;;;;;;;0.30;0.20;;;1.90;99.90;;;;;;5033573;28;20474;-82
2021/12/11 00:15:28;;;;;;;0.30;0.20;;;2.00;99.90;;;;;;5033669;28;20407;-83
2021/12/11 00:18:00;;;;;;;0.33;0.33;;;2.00;99.90;;;;;;5033940;28;20431;-82
2021/12/11 00:20:30;;;;;;;0.30;0.20;;;1.90;99.90;;;;;;5033754;28;20482;-82
2021/12/11 00:22:57;;;;;;;0.30;0.20;;;2.00;99.90;;;;;;5034525;28;20443;-82
2021/12/11 00:25:26;;;;;;;0.30;0.30;;;2.00;99.90;;;;;;5033722;28;20477;-82
2021/12/11 00:28:01;;;;;;;0.30;0.20;;;2.00;99.90;;;;;;5033450;28;20805;-82
2021/12/11 00:30:35;;;;;;;0.30;0.30;;;2.00;99.90;;;;;;5034097;28;20478;-82
2021/12/11 00:33:06;;;;;;;0.30;0.30;;;1.90;99.90;;;;;;5033588;28;20467;-82
2021/12/11 00:35:34;;;;;;;0.30;0.20;;;2.00;99.90;;;;;;5033314;28;20439;-82
2021/12/11 00:38:04;;;;;;;0.30;0.30;;;2.00;99.90;;;;;;5033560;28;20458;-82
2021/12/11 00:40:33;;;;;;;0.30;0.20;;;2.00;99.90;;;;;;5033188;28;20471;-82
2021/12/11 00:43:04;;;;;;;0.30;0.20;;;2.10;99.90;;;;;;5032571;28;20435;-82
2021/12/11 00:45:35;;;;;;;0.30;0.20;;;2.10;99.90;;;;;;5034183;28;20446;-82
2021/12/11 00:48:04;;;;;;;0.30;0.20;;;2.10;99.90;;;;;;5033476;28;20438;-82
2021/12/11 00:50:37;;;;;;;0.30;0.30;;;2.10;99.90;;;;;;5033063;28;20466;-82
2021/12/11 00:53:09;;;;;;;0.30;0.30;;;2.10;99.90;;;;;;5033378;28;20470;-82
2021/12/11 00:55:40;;;;;;;0.30;0.30;;;2.00;99.90;;;;;;5033087;28;20431;-82
2021/12/11 00:58:10;;;;;;;0.30;0.20;;;2.10;99.90;;;;;;5033448;28;20415;-83
2021/12/11 01:00:43;;;;;;;0.30;0.20;;;2.10;99.90;;;;;;5033150;28;20479;-82
2021/12/11 01:03:11;;;;;;;0.30;0.30;;;2.00;99.90;;;;;;5033047;28;20424;-82
2021/12/11 01:05:41;;;;;;;0.30;0.20;;;2.00;99.90;;;;;;5033231;28;20438;-82
2021/12/11 01:08:20;;;;;;;0.30;0.20;;;2.00;99.90;;;;;;5033281;28;20431;-82
2021/12/11 01:10:49;;;;;;;0.30;0.30;;;2.00;99.90;;;;;;5033145;28;20810;-82
2021/12/11 01:13:19;;;;;;;0.30;0.20;;;2.00;99.90;;;;;;5032917;28;20485;-82
2021/12/11 01:15:54;;;;;;;0.30;0.20;;;2.00;99.90;;;;;;5033962;28;20443;-82
2021/12/11 01:18:34;;;;;;;0.30;0.30;;;2.00;99.90;;;;;;5033310;28;20808;-82
2021/12/11 01:21:12;;;;;;;0.30;0.20;;;2.00;99.90;;;;;;5033318;28;20472;-82
2021/12/11 01:26:24;;;;;;;0.30;0.30;;;2.00;99.90;;;;;;5033315;28;20572;-82
2021/12/11 01:28:52;;;;;;;0.30;0.20;;;2.10;99.90;;;;;;5033330;28;20445;-82
2021/12/11 01:31:22;;;;;;;0.30;0.30;;;2.10;99.90;;;;;;5032707;28;20454;-82
2021/12/11 01:33:49;;;;;;;0.30;0.20;;;2.10;99.90;;;;;;5032694;28;20482;-82
2021/12/11 01:36:16;;;;;;;0.30;0.30;;;2.00;99.90;;;;;;5032973;28;20454;-82
2021/12/11 01:38:44;;;;;;;0.30;0.30;;;2.00;99.90;;;;;;5032965;28;20462;-82
2021/12/11 01:41:16;;;;;;;0.30;0.30;;;2.00;99.90;;;;;;5032549;28;20989;-82
2021/12/11 01:43:46;;;;;;;0.30;0.30;;;2.00;99.90;;;;;;5032700;28;20930;-82
2021/12/11 01:46:14;;;;;;;0.30;0.20;;;2.00;99.90;;;;;;5032607;28;20431;-82
2021/12/11 01:48:46;;;;;;;0.30;0.30;;;2.00;99.90;;;;;;5032592;28;20451;-82
2021/12/11 01:51:19;;;;;;;0.40;0.40;;;2.00;99.90;;;;;;5033213;28;20501;-82
2021/12/11 01:53:51;;;;;;;0.30;0.30;;;2.10;99.90;;;;;;5032897;28;20477;-82
2021/12/11 01:56:21;;;;;;;0.30;0.30;;;2.00;99.90;;;;;;5036558;28;20424;-82
2021/12/11 01:58:56;;;;;;;0.30;0.20;;;2.00;99.90;;;;;;5036748;28;20518;-82
2021/12/11 02:01:30;;;;;;;0.40;0.40;;;2.10;99.90;;;;;;5036417;28;20477;-82
2021/12/11 02:03:58;;;;;;;0.30;0.20;;;2.10;99.90;;;;;;5037073;28;20449;-82
2021/12/11 02:06:28;;;;;;;0.30;0.30;;;2.10;99.90;;;;;;5036277;28;20458;-82
2021/12/11 02:08:55;;;;;;;0.30;0.20;;;2.10;99.90;;;;;;5036173;28;20446;-82
2021/12/11 02:11:25;;;;;;;0.30;0.20;;;2.10;99.90;;;;;;5036378;28;20470;-82
2021/12/11 02:13:57;;;;;;;0.30;0.20;;;2.10;99.90;;;;;;5036924;28;20486;-82
2021/12/11 02:16:28;;;;;;;0.30;0.20;;;2.10;99.90;;;;;;5035870;28;20952;-82
2021/12/11 02:18:59;;;;;;;0.30;0.20;;;2.00;99.90;;;;;;5036315;28;20434;-82
2021/12/11 02:21:29;;;;;;;0.30;0.30;;;2.00;99.90;;;;;;5036238;28;20516;-82
2021/12/11 02:24:03;;;;;;;0.30;0.20;;;2.00;99.90;;;;;;5035962;28;20462;-82
2021/12/11 02:26:31;;;;;;;0.30;0.30;;;2.10;99.90;;;;;;5035973;28;20442;-82
2021/12/11 02:29:02;;;;;;;0.30;0.20;;;2.00;99.90;;;;;;5038271;28;20439;-81
2021/12/11 02:31:35;;;;;;;0.30;0.30;;;2.00;99.90;;;;;;5036490;28;20475;-82
2021/12/11 02:34:09;;;;;;;0.30;0.30;;;2.00;99.90;;;;;;5036073;28;20532;-82
2021/12/11 02:36:41;;;;;;;0.30;0.30;;;2.00;99.90;;;;;;5035500;28;20488;-82
2021/12/11 02:39:15;;;;;;;0.30;0.20;;;2.00;99.90;;;;;;5035827;28;20415;-82
2021/12/11 02:41:50;;;;;;;0.30;0.30;;;2.00;99.90;;;;;;5035507;28;20477;-82
2021/12/11 02:44:21;;;;;;;0.30;0.20;;;2.00;99.90;;;;;;5035614;28;20431;-81
2021/12/11 02:46:57;;;;;;;0.30;0.20;;;2.00;99.90;;;;;;5035992;28;20455;-82
2021/12/11 02:49:27;;;;;;;0.30;0.30;;;2.10;99.90;;;;;;5035953;28;20458;-82
2021/12/11 02:52:06;;;;;;;0.30;0.20;;;2.10;99.90;;;;;;5035582;28;20477;-82
2021/12/11 02:54:39;;;;;;;0.30;0.30;;;2.10;99.90;;;;;;5035121;28;20463;-82
2021/12/11 02:57:09;;;;;;;0.30;0.20;;;2.10;99.90;;;;;;5035388;28;20447;-82
2021/12/11 02:59:42;;;;;;;0.30;0.20;;;2.20;99.90;;;;;;5035108;28;20419;-82
2021/12/11 03:02:12;;;;;;;0.30;0.20;;;2.20;99.90;;;;;;5035130;28;20525;-82
2021/12/11 03:04:47;;;;;;;0.30;0.20;;;2.20;99.90;;;;;;5035288;28;20435;-82
2021/12/11 03:07:14;;;;;;;0.30;0.20;;;2.20;99.90;;;;;;5034813;28;20521;-82
2021/12/11 03:09:48;;;;;;;0.30;0.20;;;2.10;99.90;;;;;;5035367;28;20454;-82
2021/12/11 03:12:16;;;;;;;0.30;0.30;;;2.20;99.90;;;;;;5034804;28;20437;-82
2021/12/11 03:14:45;;;;;;;0.30;0.20;;;2.10;99.90;;;;;;5034699;28;21024;-77
2021/12/11 03:17:13;;;;;;;0.30;0.27;;;1.90;99.90;;;;;;5034980;28;20442;-76
2021/12/11 03:19:43;;;;;;;0.30;0.20;;;1.90;99.90;;;;;;5034912;28;20454;-76
2021/12/11 03:22:20;;;;;;;0.30;0.20;;;1.80;99.90;;;;;;5034499;28;20466;-76
2021/12/11 03:24:50;;;;;;;0.30;0.20;;;1.70;99.90;;;;;;5034899;28;20438;-76
2021/12/11 03:27:17;;;;;;;0.30;0.30;;;1.60;99.90;;;;;;5034742;28;20462;-76
2021/12/11 03:29:44;;;;;;;0.40;0.30;;;1.60;99.90;;;;;;5034729;28;20447;-76
2021/12/11 03:32:13;;;;;;;0.30;0.20;;;1.60;99.90;;;;;;5034429;28;20451;-76
2021/12/11 03:34:41;;;;;;;0.30;0.20;;;1.60;99.90;;;;;;5035022;28;20486;-88
2021/12/11 03:37:10;;;;;;;0.30;0.30;;;1.50;99.90;;;;;;5034935;28;20957;-89
2021/12/11 03:39:40;;;;;;;0.30;0.20;;;1.50;99.90;;;;;;5034873;28;20435;-88
2021/12/11 03:42:13;;;;;;;0.30;0.30;;;1.40;99.90;;;;;;5035195;28;20463;-89
2021/12/11 03:44:40;;;;;;;0.30;0.30;;;1.40;99.90;;;;;;5035275;28;20423;-89
2021/12/11 03:47:10;;;;;;;0.30;0.30;;;1.40;99.90;;;;;;5034297;28;20434;-78
2021/12/11 03:49:37;;;;;;;0.30;0.20;;;1.40;99.90;;;;;;5034392;28;20451;-78
2021/12/11 03:52:06;;;;;;;0.30;0.30;;;1.50;99.90;;;;;;5034251;28;20478;-78
2021/12/11 03:54:34;;;;;;;0.30;0.20;;;1.50;99.90;;;;;;5033912;28;20474;-78
2021/12/11 03:57:02;;;;;;;0.30;0.20;;;1.40;99.90;;;;;;5033971;28;20964;-78
2021/12/11 03:59:31;;;;;;;0.30;0.20;;;1.50;99.90;;;;;;5034174;28;20454;-78
2021/12/11 04:02:01;;;;;;;0.30;0.20;;;1.50;99.90;;;;;;5034073;28;20463;-78
2021/12/11 04:04:32;;;;;;;0.30;0.20;;;1.50;99.90;;;;;;5034154;28;20486;-78
2021/12/11 04:07:01;;;;;;;0.30;0.30;;;1.50;99.90;;;;;;5034076;28;20435;-78
2021/12/11 04:09:29;;;;;;;0.30;0.20;;;1.50;99.90;;;;;;5034017;28;20450;-78
2021/12/11 04:11:57;;;;;;;0.30;0.20;;;1.50;99.90;;;;;;5033617;28;20474;-82
2021/12/11 04:14:27;;;;;;;0.30;0.30;;;1.50;99.90;;;;;;5033609;28;20506;-82
2021/12/11 04:16:56;;;;;;;0.30;0.20;;;1.50;99.90;;;;;;5033786;28;20469;-82
2021/12/11 04:19:23;;;;;;;0.93;0.93;;;1.50;99.90;;;;;;5033725;28;20474;-81
2021/12/11 04:21:51;;;;;;;0.30;0.20;;;1.50;99.90;;;;;;5033450;28;20466;-82
2021/12/11 04:24:21;;;;;;;0.30;0.30;;;1.50;99.90;;;;;;5033775;28;20809;-82
2021/12/11 04:26:49;;;;;;;0.30;0.30;;;1.50;99.90;;;;;;5033723;28;20829;-81
2021/12/11 04:29:16;;;;;;;0.30;0.20;;;1.50;99.90;;;;;;5033648;28;20482;-82
2021/12/11 04:31:46;;;;;;;0.30;0.20;;;1.50;99.90;;;;;;5033599;28;20478;-82
2021/12/11 04:34:16;;;;;;;0.83;0.30;;;1.60;99.90;;;;;;5033475;28;20482;-81
2021/12/11 04:36:48;;;;;;;0.30;0.30;;;1.60;99.90;;;;;;5033649;28;20435;-82
2021/12/11 04:39:20;;;;;;;0.53;0.40;;;1.50;99.90;;;;;;5033253;28;20993;-81
2021/12/11 04:41:57;;;;;;;0.30;0.20;;;1.60;99.90;;;;;;5033524;28;20486;-81
2021/12/11 04:44:32;;;;;;;0.30;0.20;;;1.60;99.90;;;;;;5033521;28;20431;-81
2021/12/11 04:47:00;;;;;;;0.30;0.20;;;1.60;99.90;;;;;;5033555;28;20437;-81
2021/12/11 04:49:35;;;;;;;0.30;0.20;;;1.60;99.90;;;;;;5033469;28;20447;-81
2021/12/11 04:52:10;;;;;;;0.30;0.20;;;1.60;99.90;;;;;;5033966;28;21012;-87
2021/12/11 04:54:50;;;;;;;0.30;0.20;;;1.60;99.90;;;;;;5033916;28;20478;-87
2021/12/11 05:00:20;;;;;;;0.30;0.20;;;1.60;99.90;;;;;;5016057;28;20508;-87
2021/12/11 05:03:12;;;;;;;0.30;0.30;;;1.60;99.90;;;;;;5033198;28;20431;-87
2021/12/11 05:05:58;;;;;;;0.30;0.20;;;1.50;99.90;;;;;;5033498;28;20435;-87
2021/12/11 05:08:58;;;;;;;0.30;0.20;;;1.50;99.90;;;;;;5033335;28;20431;-86
2021/12/11 05:11:22;;;;;;;0.33;0.30;;;1.60;99.90;;;;;;5032816;28;20546;-75
2021/12/11 05:13:49;;;;;;;0.30;0.20;;;1.60;99.90;;;;;;5033217;28;20471;-75
2021/12/11 05:16:16;;;;;;;0.40;0.40;;;1.60;99.90;;;;;;5033149;28;20455;-75
2021/12/11 05:18:46;;;;;;;0.30;0.30;;;1.60;99.90;;;;;;5033152;28;20905;-86
2021/12/11 05:21:18;;;;;;;0.30;0.20;;;1.60;99.90;;;;;;5033446;28;20462;-87
2021/12/11 05:23:47;;;;;;;0.30;0.27;;;1.60;99.90;;;;;;5033314;28;20934;-86
2021/12/11 05:26:14;;;;;;;0.30;0.30;;;1.60;99.90;;;;;;5033183;28;20446;-75
2021/12/11 05:28:40;;;;;;;0.30;0.20;;;1.60;99.90;;;;;;5032761;28;20451;-75
2021/12/11 05:31:10;;;;;;;0.30;0.20;;;1.60;99.90;;;;;;5036094;28;20454;-75
2021/12/11 05:33:38;;;;;;;0.40;0.30;;;1.70;99.90;;;;;;5036696;28;20470;-75
2021/12/11 05:36:07;;;;;;;0.30;0.20;;;1.60;99.90;;;;;;5036843;28;20450;-75
2021/12/11 05:38:39;;;;;;;0.30;0.20;;;1.60;99.90;;;;;;5036863;28;20438;-75
2021/12/11 05:41:09;;;;;;;0.30;0.20;;;1.70;99.90;;;;;;5036341;28;20486;-75
2021/12/11 05:43:36;;;;;;;0.60;0.60;;;1.70;99.90;;;;;;5036820;28;20822;-75
2021/12/11 05:46:06;;;;;;;0.30;0.20;;;1.70;99.90;;;;;;5036692;28;20455;-75
2021/12/11 05:48:33;;;;;;;0.30;0.30;;;1.70;99.90;;;;;;5036656;28;20453;-75
2021/12/11 05:51:02;;;;;;;0.30;0.20;;;1.70;99.90;;;;;;5036578;28;20470;-75
2021/12/11 05:53:32;;;;;;;0.30;0.30;;;1.70;99.90;;;;;;5037199;28;20455;-75
2021/12/11 05:56:06;;;;;;;0.30;0.20;;;1.70;99.90;;;;;;5036482;28;20805;-75
2021/12/11 05:58:46;;;;;;;0.30;0.30;;;1.60;99.90;;;;;;5036504;28;20447;-85
2021/12/11 06:01:16;;;;;;;0.30;0.20;;;1.70;99.90;;;;;;5036433;28;20544;-85
2021/12/11 06:03:43;;;;;;;0.30;0.20;;;1.70;99.90;;;;;;5036459;28;20446;-85
2021/12/11 06:06:10;;;;;;;0.30;0.27;;;1.60;99.90;;;;;;5036466;28;20453;-85
2021/12/11 06:08:37;;;;;;;0.33;0.33;;;1.60;99.90;;;;;;5036510;28;20450;-85
2021/12/11 06:11:06;;;;;;;0.30;0.30;;;1.60;99.90;;;;;;5036213;28;20813;-82
2021/12/11 06:13:33;;;;;;;0.30;0.20;;;1.60;99.90;;;;;;5036152;28;20454;-77
2021/12/11 06:16:01;;;;;;;0.30;0.20;;;1.60;99.90;;;;;;5035950;28;20431;-77
2021/12/11 06:18:28;;;;;;;0.30;0.30;;;1.60;99.90;;;;;;5036505;28;20810;-77
2021/12/11 06:20:55;;;;;;;0.30;0.30;;;1.60;99.90;;;;;;5036012;28;20473;-77
2021/12/11 06:23:22;;;;;;;0.30;0.30;;;1.60;99.90;;;;;;5035661;28;20457;-77
2021/12/11 06:25:51;;;;;;;0.30;0.20;;;1.60;99.90;;;;;;5035738;28;20439;-77
2021/12/11 06:28:20;;;;;;;0.30;0.20;;;1.60;99.90;;;;;;5035912;28;20450;-77
2021/12/11 06:30:47;;;;;;;0.30;0.20;;;1.60;99.90;;;;;;5036069;28;20590;-77
2021/12/11 06:33:14;;;;;;;0.30;0.30;;;1.60;99.90;;;;;;5035827;28;20460;-77
2021/12/11 06:35:43;;;;;;;0.30;0.20;;;1.60;99.90;;;;;;5035658;28;20487;-77
2021/12/11 06:38:13;;;;;;;0.30;0.20;;;1.70;99.90;;;;;;5035422;28;20992;-77
2021/12/11 06:40:41;;;;;;;0.30;0.30;;;1.70;99.90;;;;;;5035245;28;20483;-77
2021/12/11 06:43:09;;;;;;;0.30;0.30;;;1.70;99.90;;;;;;5035624;28;20446;-76
2021/12/11 06:45:37;;;;;;;0.30;0.20;;;1.70;99.90;;;;;;5035610;28;20450;-76
2021/12/11 06:48:05;;;;;;;0.30;0.30;;;1.70;99.90;;;;;;5035429;28;20794;-76
2021/12/11 06:50:32;;;;;;;0.30;0.30;;;1.70;99.90;;;;;;5035181;28;20459;-76
2021/12/11 06:53:00;;;;;;;0.30;0.20;;;1.70;99.90;;;;;;5035301;28;20450;-76
2021/12/11 06:55:27;;;;;;;0.30;0.20;;;1.70;99.90;;;;;;5035384;28;20482;-76
2021/12/11 06:57:54;;;;;;;0.30;0.30;;;1.60;99.90;;;;;;5035077;28;20948;-76
2021/12/11 07:00:21;;;;;;;0.30;0.30;;;1.70;99.90;;;;;;5035319;28;20478;-76
2021/12/11 07:02:50;;;;;;;0.70;0.60;;;1.70;99.90;;;;;;5035224;28;20447;-76
2021/12/11 07:05:17;;;;;;;0.30;0.30;;;1.70;99.90;;;;;;5034863;28;20961;-76
2021/12/11 07:07:44;;;;;;;0.30;0.20;;;1.70;99.90;;;;;;5034911;28;20446;-76
2021/12/11 07:10:13;;;;;;;0.30;0.30;;;1.70;99.90;;;;;;5034812;28;20546;-76
2021/12/11 07:12:41;;;;;;;0.30;0.30;;;1.70;99.90;;;;;;5035383;28;20461;-76
2021/12/11 07:15:10;;;;;;;0.30;0.30;;;1.70;99.90;;;;;;5034925;28;20493;-76
2021/12/11 07:17:38;;;;;;;0.30;0.20;;;1.70;99.90;;;;;;5034989;28;20451;-76
2021/12/11 07:20:09;;;;;;;0.30;0.30;;;1.70;99.90;;;;;;5034858;28;20457;-76
2021/12/11 07:22:39;;;;;;;0.30;0.20;;;1.70;99.90;;;;;;5034927;28;20435;-76
2021/12/11 07:25:10;;;;;;;0.30;0.30;;;1.80;99.90;;;;;;5035583;28;20447;-76
2021/12/11 07:27:37;;;;;;;0.30;0.30;;;1.80;99.90;;;;;;5034790;28;20435;-76
2021/12/11 07:30:05;;;;;;;0.30;0.30;;;1.80;99.90;;;;;;5034728;28;20442;-76
2021/12/11 07:32:33;;;;;;;0.30;0.30;;;1.80;99.90;;;;;;5034473;28;20439;-78
2021/12/11 07:35:00;;;;;;;0.30;0.30;;;1.80;99.90;;;;;;5034487;28;20482;-78
2021/12/11 07:37:28;;;;;;;0.30;0.20;;;1.80;99.90;;;;;;5034665;28;20451;-82
2021/12/11 07:39:55;;;;;;;0.30;0.30;;;1.80;99.90;;;;;;5034264;28;20516;-83
2021/12/11 07:42:22;;;;;;;0.30;0.30;;;1.80;99.90;;;;;;5034240;28;20941;-83
2021/12/11 07:44:49;;;;;;;0.30;0.27;;;1.80;99.90;;;;;;5034552;28;20434;-83
2021/12/11 07:47:16;;;;;;;0.30;0.30;;;1.80;99.90;;;;;;5034539;28;20433;-82
2021/12/11 07:49:44;;;;;;;0.30;0.30;;;1.80;99.90;;;;;;5034466;28;20431;-82
2021/12/11 07:52:11;;;;;;;0.30;0.30;;;1.80;99.90;;;;;;5033624;28;20981;-86
2021/12/11 07:54:39;;;;;;;0.33;0.33;;;1.80;99.90;;;;;;5034450;28;20471;-86
2021/12/11 07:57:06;;;;;;;0.50;0.40;;;1.80;99.90;;;;;;5034508;28;20431;-86
2021/12/11 07:59:33;;;;;;;0.30;0.20;;;1.80;99.90;;;;;;5034918;28;20781;-86
2021/12/11 08:01:59;;;;;;;0.30;0.30;;;1.90;99.90;;;;;;5034328;28;20467;-86
2021/12/11 08:04:26;;;;;;;0.40;0.40;;;1.80;99.90;;;;;;5034464;28;20427;-86
2021/12/11 08:06:53;;;;;;;0.30;0.20;;;1.80;99.90;;;;;;5034335;28;20411;-86
2021/12/11 08:09:22;;;;;;;0.30;0.20;;;1.80;99.90;;;;;;5034290;28;20439;-86
2021/12/11 08:11:51;;;;;;;0.43;0.43;;;1.80;99.90;;;;;;5033797;28;20461;-86
2021/12/11 08:14:19;;;;;;;0.30;0.30;;;1.90;99.90;;;;;;5034106;28;20442;-87
2021/12/11 08:16:47;;;;;;;0.30;0.20;;;1.90;99.90;;;;;;5033865;28;20430;-87
2021/12/11 08:19:17;;;;;;;0.33;0.33;;;1.90;99.90;;;;;;5034265;28;20526;-87
2021/12/11 08:21:44;;;;;;;0.67;0.67;;;1.90;99.90;;;;;;5034215;28;20520;-87
2021/12/11 08:24:11;;;;;;;0.30;0.30;;;1.90;99.90;;;;;;5033825;28;20431;-87
2021/12/11 08:26:40;;;;;;;0.40;0.40;;;1.90;99.90;;;;;;5033983;28;20453;-87
2021/12/11 08:29:10;;;;;;;0.30;0.20;;;1.90;99.90;;;;;;5034126;28;20450;-87
2021/12/11 08:31:38;;;;;;;0.30;0.30;;;1.90;99.90;;;;;;5033736;28;20978;-87
2021/12/11 08:34:06;;;;;;;0.30;0.30;;;1.90;99.90;;;;;;5034074;28;20446;-88
2021/12/11 08:36:33;;;;;;;0.30;0.30;;;1.90;99.90;;;;;;5033664;28;20482;-88
2021/12/11 08:39:00;;;;;;;0.30;0.30;;;2.00;99.90;;;;;;5033925;28;20458;-88
2021/12/11 08:41:29;;;;;;;0.30;0.30;;;2.10;99.90;;;;;;5033707;28;20482;-88
2021/12/11 08:44:02;;;;;;;0.30;0.30;;;2.10;99.90;;;;;;5034272;28;20452;-88
2021/12/11 08:46:34;;;;;;;0.80;0.40;;;2.10;99.90;;;;;;5034060;28;20485;-88
2021/12/11 08:49:06;;;;;;;0.30;0.20;;;2.10;99.90;;;;;;5034009;28;20442;-89
2021/12/11 08:51:37;;;;;;;0.40;0.40;;;2.20;99.90;;;;;;5033867;28;20466;-88
2021/12/11 08:54:04;;;;;;;0.30;0.23;;;2.20;99.90;;;;;;5033970;28;20435;-88
2021/12/11 08:56:31;;;;;;;0.30;0.20;;;2.20;99.90;;;;;;5033845;28;20486;-89
2021/12/11 08:58:59;;;;;;;0.57;0.57;;;2.30;99.90;;;;;;5033546;28;20446;-88
2021/12/11 09:01:30;;;;;;;0.30;0.30;;;2.40;99.90;;;;;;5033612;28;20474;-88
2021/12/11 09:04:03;;;;;;;0.30;0.30;;;2.40;99.90;;;;;;5033603;28;20809;-89
2021/12/11 09:06:36;;;;;;;0.30;0.30;;;2.50;99.90;;;;;;5037990;28;20435;-88
2021/12/11 09:09:10;;;;;;;0.30;0.20;;;2.50;99.90;;;;;;5038083;28;20446;-88
2021/12/11 09:11:40;;;;;;;0.40;0.30;;;2.60;99.90;;;;;;5037766;28;20470;-88
2021/12/11 09:14:12;;;;;;;0.30;0.30;;;2.60;99.90;;;;;;5037379;28;20450;-79
2021/12/11 09:16:44;;;;;;;1.13;1.13;;;2.60;99.90;;;;;;5037265;28;20469;-79
2021/12/11 09:19:17;;;;;;;0.30;0.30;;;2.70;99.90;;;;;;5037208;28;20435;-80
2021/12/11 09:21:49;;;;;;;0.30;0.20;;;2.80;99.90;;;;;;5037074;28;20536;-80
2021/12/11 09:24:23;;;;;;;0.30;0.20;;;2.80;99.90;;;;;;5037126;28;20441;-80
2021/12/11 09:26:53;;;;;;;0.63;0.63;;;2.80;99.90;;;;;;5037106;28;20438;-80
2021/12/11 09:29:24;;;;;;;0.30;0.23;;;2.80;99.90;;;;;;5037060;28;20451;-80
2021/12/11 09:32:08;;;;;;;0.30;0.20;;;2.90;99.90;;;;;;5036951;28;20458;-80
2021/12/11 09:34:39;;;;;;;0.30;0.20;;;3.00;99.90;;;;;;5036882;28;20431;-80
2021/12/11 09:37:08;;;;;;;0.30;0.30;;;3.10;99.90;;;;;;5036923;28;20510;-80
2021/12/11 09:39:40;;;;;;;0.30;0.30;;;3.20;99.90;;;;;;5036468;28;20796;-77
2021/12/11 09:42:07;;;;;;;0.30;0.20;;;3.20;99.90;;;;;;5036532;28;20817;-77
2021/12/11 09:44:39;;;;;;;0.30;0.30;;;3.20;99.90;;;;;;5036435;28;20453;-77
2021/12/11 09:47:09;;;;;;;0.80;0.80;;;3.30;99.90;;;;;;5036757;28;20419;-77
2021/12/11 09:49:43;;;;;;;0.30;0.20;;;3.20;99.90;;;;;;5036341;28;20431;-77
2021/12/11 09:52:18;;;;;;;0.30;0.30;;;3.20;99.90;;;;;;5036510;28;20474;-76
2021/12/11 09:54:47;;;;;;;0.50;0.50;;;3.20;99.90;;;;;;5036580;28;20446;-77
2021/12/11 09:57:18;;;;;;;0.40;0.40;;;3.30;99.90;;;;;;5036716;28;20450;-77
2021/12/11 09:59:50;;;;;;;0.30;0.20;;;3.30;99.90;;;;;;5036759;28;20431;-79
2021/12/11 10:02:20;;;;;;;0.57;0.57;;;3.40;99.90;;;;;;5036400;28;20430;-79
2021/12/11 10:05:03;;;;;;;1.70;0.97;;;3.40;99.90;;;;;;5036329;28;20443;-79
2021/12/11 10:07:35;;;;;;;0.30;0.20;;;3.40;99.90;;;;;;5036420;28;20435;-81
2021/12/11 10:10:11;;;;;;;0.30;0.30;;;3.40;99.90;;;;;;5036210;28;20909;-79
2021/12/11 10:12:41;;;;;;;0.50;0.50;;;3.50;99.90;;;;;;5035962;28;20441;-79
2021/12/11 10:15:14;;;;;;;0.30;0.27;;;3.50;99.90;;;;;;5035662;28;20486;-79
2021/12/11 10:17:46;;;;;;;0.30;0.30;;;3.50;99.90;;;;;;5036453;28;20438;-76
2021/12/11 10:20:20;;;;;;;0.30;0.30;;;3.60;99.90;;;;;;5036050;28;20485;-76
2021/12/11 10:22:48;;;;;;;0.30;0.30;;;3.60;99.90;;;;;;5035854;28;20422;-76
2021/12/11 10:25:19;;;;;;;0.30;0.30;;;3.70;99.90;;;;;;5035729;28;20443;-76
2021/12/11 10:27:46;;;;;;;0.57;0.57;;;3.70;99.90;;;;;;5035963;28;20447;-76
2021/12/11 10:30:19;;;;;;;0.30;0.30;;;3.80;99.90;;;;;;5035757;28;20541;-76
2021/12/11 10:32:46;;;;;;;0.30;0.30;;;3.90;99.90;;;;;;5035875;28;20439;-76
2021/12/11 10:35:16;;;;;;;0.97;0.50;;;3.90;99.90;;;;;;5035745;28;20474;-77
2021/12/11 10:37:43;;;;;;;0.30;0.30;;;3.90;99.90;;;;;;5035522;28;20416;-76
2021/12/11 10:40:15;;;;;;;0.50;0.40;;;3.90;99.90;;;;;;5035092;28;21001;-76
2021/12/11 10:42:42;;;;;;;0.30;0.30;;;3.80;99.90;;;;;;5035694;28;20426;-88
2021/12/11 10:45:12;;;;;;;0.37;0.37;;;3.80;99.90;;;;;;5036554;28;20449;-88
2021/12/11 10:47:47;;;;;;;0.40;0.40;;;3.70;99.90;;;;;;5035867;28;20796;-79
2021/12/11 10:50:19;;;;;;;0.83;0.73;;;3.60;99.90;;;;;;5035487;28;20812;-79
2021/12/11 10:52:48;;;;;;;0.53;0.53;;;3.60;99.90;;;;;;5035449;28;20435;-79
2021/12/11 10:55:18;;;;;;;0.30;0.20;;;3.50;99.90;;;;;;5035383;28;20501;-79
2021/12/11 10:57:45;;;;;;;0.30;0.20;;;3.50;99.90;;;;;;5035110;28;20435;-79
2021/12/11 11:00:17;;;;;;;0.30;0.20;;;3.50;99.90;;;;;;5035296;28;20451;-79
2021/12/11 11:02:46;;;;;;;0.30;0.30;;;3.50;99.90;;;;;;5035308;28;20430;-79
2021/12/11 11:05:16;;;;;;;0.30;0.20;;;3.40;99.90;;;;;;5035172;28;20946;-79
2021/12/11 11:07:44;;;;;;;0.83;0.83;;;3.40;99.90;;;;;;5035219;28;20438;-79
2021/12/11 11:10:16;;;;;;;0.40;0.40;;;3.40;99.90;;;;;;5034880;28;20993;-79
2021/12/11 11:12:43;;;;;;;0.70;0.43;;;3.40;99.90;;;;;;5035066;28;20431;-78
2021/12/11 11:15:12;;;;;;;0.43;0.40;;;3.30;99.90;;;;;;5035062;28;20434;-79
2021/12/11 11:17:39;;;;;;;0.50;0.50;;;3.40;99.90;;;;;;5035252;28;20514;-87
2021/12/11 11:20:13;;;;;;;0.30;0.30;;;3.40;99.90;;;;;;5035344;28;20434;-87
2021/12/11 11:22:44;;;;;;;0.30;0.30;;;3.30;99.90;;;;;;5045858;28;20433;-87
2021/12/11 11:25:13;;;;;;;0.60;0.60;;;3.30;99.90;;;;;;5035205;28;20415;-87
2021/12/11 11:27:43;;;;;;;0.40;0.37;;;3.30;99.90;;;;;;5034444;28;20441;-87
2021/12/11 11:30:15;;;;;;;0.37;0.30;;;3.40;99.90;;;;;;5035245;28;20473;-87
2021/12/11 11:32:42;;;;;;;0.30;0.30;;;3.30;99.90;;;;;;5034753;28;20899;-79
2021/12/11 11:35:15;;;;;;;0.30;0.30;;;3.30;99.90;;;;;;5034446;28;20438;-79
2021/12/11 11:37:43;;;;;;;0.30;0.20;;;3.30;99.90;;;;;;5034844;28;20435;-87
2021/12/11 11:40:13;;;;;;;0.30;0.30;;;3.30;99.90;;;;;;5034471;28;20523;-87
2021/12/11 11:42:41;;;;;;;0.67;0.67;;;3.40;99.90;;;;;;5034903;28;20431;-87
2021/12/11 11:45:11;;;;;;;0.30;0.30;;;3.30;99.90;;;;;;5034910;28;20431;-82
2021/12/11 11:47:38;;;;;;;0.30;0.30;;;3.40;99.90;;;;;;5034466;28;20423;-81
2021/12/11 11:50:07;;;;;;;0.30;0.30;;;3.30;99.90;;;;;;5034503;28;20439;-81
2021/12/11 11:52:35;;;;;;;0.50;0.40;;;3.40;99.90;;;;;;5034436;28;20489;-81
2021/12/11 11:55:07;;;;;;;0.30;0.30;;;3.40;99.90;;;;;;5034266;28;20427;-81
2021/12/11 11:57:37;;;;;;;0.30;0.30;;;3.40;99.90;;;;;;5034443;28;20471;-81
2021/12/11 12:00:08;;;;;;;0.30;0.27;;;3.40;99.90;;;;;;5033906;28;20430;-81
2021/12/11 12:02:35;;;;;;;0.30;0.30;;;3.40;99.90;;;;;;5034174;28;20438;-81
2021/12/11 12:05:02;;;;;;;0.30;0.30;;;3.50;99.90;;;;;;5034722;28;20442;-81
2021/12/11 12:07:32;;;;;;;0.60;0.60;;;3.60;99.90;;;;;;5034155;28;20424;-81
2021/12/11 12:10:06;;;;;;;0.60;0.60;;;3.60;99.90;;;;;;5033731;28;20914;-76
2021/12/11 12:12:34;;;;;;;0.30;0.20;;;3.70;99.90;;;;;;5034011;28;20442;-76
2021/12/11 12:15:04;;;;;;;1.40;0.60;;;3.70;99.90;;;;;;5034003;28;20516;-76
2021/12/11 12:17:31;;;;;;;0.40;0.40;;;3.60;99.90;;;;;;5033616;28;20467;-76
2021/12/11 12:19:59;;;;;;;0.33;0.33;;;3.60;99.90;;;;;;5033728;28;20942;-75
2021/12/11 12:22:27;;;;;;;0.30;0.20;;;3.60;99.90;;;;;;5033848;28;20431;-78
2021/12/11 12:24:57;;;;;;;0.40;0.40;;;3.60;99.90;;;;;;5033488;28;20914;-78
2021/12/11 12:27:28;;;;;;;1.00;0.40;;;3.80;99.90;;;;;;5033694;28;20430;-78
2021/12/11 12:29:57;;;;;;;0.30;0.20;;;3.70;99.90;;;;;;5034022;28;20431;-79
2021/12/11 12:32:26;;;;;;;0.40;0.40;;;3.80;99.90;;;;;;5033712;28;20442;-78
2021/12/11 12:34:55;;;;;;;0.30;0.30;;;3.90;99.90;;;;;;5033310;28;20903;-78
2021/12/11 12:37:22;;;;;;;0.50;0.50;;;3.90;99.90;;;;;;5033685;28;20471;-85
2021/12/11 12:39:53;;;;;;;0.30;0.30;;;3.80;99.90;;;;;;5033363;28;20478;-85
2021/12/11 12:42:31;;;;;;;0.30;0.30;;;3.90;99.90;;;;;;5033564;28;20438;-81
2021/12/11 12:45:03;;;;;;;1.07;0.57;;;3.90;99.90;;;;;;5033551;28;20501;-81
2021/12/11 12:47:34;;;;;;;0.30;0.30;;;3.80;99.90;;;;;;5033485;28;20430;-81
2021/12/11 12:50:04;;;;;;;0.30;0.30;;;3.80;99.90;;;;;;5033409;28;20539;-81
2021/12/11 12:52:34;;;;;;;0.30;0.30;;;3.80;99.90;;;;;;5033247;28;20423;-81
2021/12/11 12:55:04;;;;;;;0.30;0.30;;;3.80;99.90;;;;;;5033446;28;20427;-81
2021/12/11 12:57:36;;;;;;;0.50;0.50;;;3.80;99.90;;;;;;5032973;28;20474;-81
2021/12/11 13:00:12;;;;;;;0.30;0.30;;;3.70;99.90;;;;;;5033306;28;20431;-81
2021/12/11 13:02:40;;;;;;;0.30;0.30;;;3.70;99.90;;;;;;5033400;28;20420;-81
2021/12/11 13:05:11;;;;;;;0.30;0.30;;;3.60;99.90;;;;;;5033003;28;20944;-81
2021/12/11 13:07:38;;;;;;;0.50;0.40;;;3.50;99.90;;;;;;5033298;28;20430;-81
2021/12/11 13:10:09;;;;;;;0.83;0.30;;;3.50;99.90;;;;;;5033114;28;20443;-81
2021/12/11 13:12:38;;;;;;;0.30;0.20;;;3.40;99.90;;;;;;5033533;28;20431;-81
2021/12/11 13:15:10;;;;;;;0.30;0.20;;;3.40;99.90;;;;;;5033485;28;20431;-81
2021/12/11 13:17:41;;;;;;;0.43;0.43;;;3.40;99.90;;;;;;5033169;28;20461;-81